Terminal Aerodrome Forecast
Issued by NWS Albany, NY

Home | Current Version | Previous Version | Text Only | Print | Product List | Glossary On
Versions: 1 2 3 4 5 6 7 8 9 10 11 12 13 14 15 16
000
FTUS41 KALY 281134
TAFPOU
TAF
KPOU 281134Z 2812/2912 00000KT P6SM SKC
     FM281400 34005KT P6SM SCT050
     FM290000 VRB03KT P6SM SKC
     FM290800 00000KT P6SM MIFG SKC=

USA.gov is the U.S. government's official web portal to all federal, state and local government web resources and services.